• Join FlightAware (Why Join?)
  • Login
  • US Flag 
05:13PM EST


 

Airport Tracker/Info


-or-


 

Live Flight TrackerFlight Track Log ✈ WIG7407 ✈ 03-Mar-2014 ✈ KPBG - KALB

Flight Track Log - Related Links

Times and Time Zones

All times are in EST time to prevent confusion due to time zone crossing. See the WIG7407 flight status page for this flight to view local times or setup timezone preferences in your user account.

Time Position Orientation Groundspeed Altitude Reporting Facility
EST Latitude Longitude Course Direction KTS MPH feet Rate Location/Type
07:35PM 44.5725 -73.4750 189° South 95 109 3,700  Level Boston Center
07:36PM 44.5444 -73.4733 178° South 100 115 4,700 960 Climbing Boston Center
07:37PM 44.5153 -73.4792 188° South 106 122 5,700 1,080 Climbing Boston Center
07:38PM 44.4831 -73.4853 188° South 115 132 6,900 1,080 Climbing Boston Center
07:39PM 44.3836 -73.5055 189° South  Level FlightAware Approximate
07:39PM 44.4497 -73.4922 188° South 116 133 7,900  Level Boston Center
07:40PM 44.3395 -73.5153 189° South  Level FlightAware Approximate
07:40PM 44.4108 -73.4997 188° South 134 154 8,200  Level Boston Center
07:41PM 44.3647 -73.5067 186° South 166 191 8,100 -60 Descending Boston Center
07:42PM 44.3194 -73.5161 188° South 167 192 8,100  Level Boston Center
07:43PM 44.2692 -73.5267 189° South 170 196 8,100  Level Boston Center
07:44PM 44.2222 -73.5347 187° South 171 197 8,200  Climbing Boston Center
07:45PM 44.1761 -73.5433 188° South 171 197 8,100 -120 Descending Boston Center
07:46PM 44.1253 -73.5528 188° South 171 197 8,000 -60 Descending Boston Center
07:47PM 44.0792 -73.5611 187° South 170 196 8,000  Level Boston Center
07:48PM 44.0331 -73.5692 187° South 169 194 8,000  Level Boston Center
07:49PM 43.9828 -73.5783 187° South 170 196 8,000  Level Boston Center
07:50PM 43.9369 -73.5867 187° South 169 194 8,000  Level Boston Center
07:51PM 43.8914 -73.5936 186° South 166 191 8,000 -60 Level Boston Center
07:52PM 43.8414 -73.6036 188° South 169 194 7,900  Descending Boston Center
07:53PM 43.7953 -73.6119 187° South 168 193 8,100  Climbing Boston Center
07:54PM 43.7497 -73.6203 188° South 167 192 8,000 -60 Descending Boston Center
07:55PM 43.7033 -73.6289 188° South 170 196 8,000  Level Boston Center
07:56PM 43.6539 -73.6372 187° South 168 193 8,000  Level Boston Center
07:57PM 43.6075 -73.6456 187° South 168 193 8,100  Climbing Boston Center
07:58PM 43.5733 -73.6506 186° South 165 190 8,000 -120 Descending Boston Center
07:58PM 43.5689 -73.6519 193° South 165 190 8,000 -480 Level Boston Center
07:58PM 43.5617 -73.6533 188° South 166 191 7,900  Descending Boston Center
07:59PM 43.5222 -73.6600 187° South 167 192 8,000  Climbing Boston Center
07:59PM 43.5167 -73.6633 204° Southwest 166 191 7,900 60 Descending Boston Center
08:00PM 43.4758 -73.6678 185° South 169 194 8,100  Climbing Boston Center
08:00PM 43.4700 -73.6700 195° South 167 192 7,900 -300 Descending Boston Center
08:01PM 43.4242 -73.6792 188° South 167 192 7,800  Descending Boston Center
08:02PM 43.3725 -73.6872 186° South 167 192 7,900  Climbing Boston Center
08:03PM 43.3275 -73.6944 187° South 161 185 7,900  Level Boston Center
08:04PM 43.2847 -73.7028 188° South 164 189 7,900 -240 Level Boston Center
08:04PM 43.2806 -73.7031 183° South 168 193 7,700 -1,020 Descending Boston Center
08:05PM 43.2353 -73.7156 191° South 181 208 6,900 -900 Descending Boston Center
08:05PM 43.2306 -73.7153 178° South 181 208 6,800 -960 Descending Boston Center
08:06PM 43.1808 -73.7228 186° South 180 207 5,900 -780 Descending Boston Center
08:06PM 43.1803 -73.7233 216° Southwest 182 209 6,000 -660 Climbing Boston Center
08:07PM 43.1247 -73.7336 188° South 178 205 5,200 -840 Descending Boston Center
08:08PM 43.0831 -73.7414 188° South 175 201 4,400 -840 Descending Boston Center
08:08PM 43.0756 -73.7433 191° South 175 201 4,400 -1,140 Level Boston Center
08:09PM 43.0306 -73.7506 187° South 176 203 3,300 -1,140 Descending Boston Center
08:09PM 43.0267 -73.7533 208° Southwest 175 201 3,300 -720 Level Boston Center
08:10PM 42.9817 -73.7589 185° South 177 204 2,600 -600 Descending Boston Center
08:10PM 42.9781 -73.7603 196° South 177 204 2,700 -120 Climbing Boston Center
08:11PM 42.9383 -73.7656 186° South 160 184 2,500 -120 Descending Boston Center
08:11PM 42.9342 -73.7658 183° South 157 181 2,600 60 Climbing Boston Center
08:12PM 42.8956 -73.7719 187° South 155 178 2,600  Level Boston Center
08:12PM 42.8922 -73.7719 180° South 151 174 2,600 -240 Level Boston Center
08:13PM 42.8519 -73.7733 181° South 156 180 2,400 -120 Descending Boston Center
08:13PM 42.8489 -73.7747 198° South 157 181 2,500 -660 Climbing Boston Center
08:14PM 42.8053 -73.7778 183° South 164 189 1,800 -900 Descending Boston Center
08:14PM 42.8064 -73.7781 350° North 161 185 1,700 -840 Descending Boston Center
08:15PM 42.7644 -73.7783 180° South 141 162 1,000 -840 Descending Boston Center
08:15PM 42.7642 -73.7783 180° South 151 174 900 -780 Descending Boston Center
08:16PM 42.7497 -73.7986 226° Southwest 99 114 200 -720 Descending Boston Center
08:18PM 42.7491 -73.8020 190° South  Level Estimated
08:25PM 42.7491 -73.8020 190° South  Level Estimated
08:26PM 42.7491 -73.8020 190° South  Level Estimated